createdAt,value
2019-05-01T00:00:26.905Z,39.50
2019-05-01T00:01:26.863Z,43.00
2019-05-01T00:02:26.838Z,46.00
2019-05-01T00:03:26.814Z,39.70
2019-05-01T00:04:26.779Z,41.90
2019-05-01T00:05:26.826Z,39.40
2019-05-01T00:06:26.728Z,43.10
2019-05-01T00:07:26.685Z,44.40
2019-05-01T00:08:26.667Z,40.90
2019-05-01T00:09:26.730Z,41.60
2019-05-01T00:10:26.610Z,44.10
2019-05-01T00:11:26.590Z,43.80
2019-05-01T00:12:26.556Z,44.60
2019-05-01T00:13:26.528Z,42.10
2019-05-01T00:14:26.498Z,44.30
2019-05-01T00:15:26.472Z,42.60
2019-05-01T00:16:26.493Z,44.70
2019-05-01T00:17:27.820Z,44.00
2019-05-01T00:18:26.429Z,42.40
2019-05-01T00:19:26.364Z,44.20
2019-05-01T00:20:26.422Z,47.90
2019-05-01T00:21:26.301Z,44.80
2019-05-01T00:22:26.270Z,45.60
2019-05-01T00:23:26.250Z,45.80
2019-05-01T00:24:26.246Z,45.80
2019-05-01T00:25:26.185Z,44.30
2019-05-01T00:26:26.163Z,45.60
2019-05-01T00:27:34.736Z,48.30
2019-05-01T00:28:26.098Z,45.10
2019-05-01T00:29:32.693Z,44.70
2019-05-01T00:30:29.969Z,45.40
2019-05-01T00:31:28.110Z,46.80
2019-05-01T00:32:25.988Z,45.70
2019-05-01T00:33:26.067Z,47.70
2019-05-01T00:34:25.929Z,47.30
2019-05-01T00:35:28.019Z,47.80
2019-05-01T00:36:25.882Z,46.90
2019-05-01T00:38:25.843Z,48.40
2019-05-01T00:39:32.764Z,50.10
2019-05-01T00:40:25.760Z,48.30
2019-05-01T00:41:25.748Z,49.30
2019-05-01T00:42:26.745Z,48.30
2019-05-01T00:43:25.680Z,47.00
2019-05-01T00:44:27.679Z,48.50
2019-05-01T00:45:25.626Z,51.00
2019-05-01T00:46:26.671Z,48.50
2019-05-01T00:47:25.563Z,53.20
2019-05-01T00:48:46.651Z,48.90
2019-05-01T00:49:25.594Z,49.90
2019-05-01T00:50:40.210Z,47.80
2019-05-01T00:51:25.453Z,53.30
2019-05-01T00:52:25.483Z,52.20
2019-05-01T00:53:25.403Z,51.90
2019-05-01T00:54:27.439Z,50.90
2019-05-01T00:55:25.336Z,53.10
2019-05-01T00:56:25.407Z,51.10
2019-05-01T00:57:25.277Z,52.60
2019-05-01T00:58:25.314Z,53.40
2019-05-01T00:59:25.227Z,52.10
2019-05-01T01:00:26.334Z,54.00
2019-05-01T01:01:25.167Z,53.10
2019-05-01T01:02:25.251Z,53.30
2019-05-01T01:03:25.112Z,50.60
2019-05-01T01:04:25.171Z,50.50
2019-05-01T01:05:25.126Z,46.40
2019-05-01T01:06:27.110Z,45.60
2019-05-01T01:07:25.007Z,46.90
2019-05-01T01:08:25.078Z,47.30
2019-05-01T01:09:24.940Z,51.10
2019-05-01T01:10:26.937Z,52.20
2019-05-01T01:11:24.886Z,45.90
2019-05-01T01:12:24.847Z,47.20
2019-05-01T01:13:24.914Z,50.90
2019-05-01T01:14:24.798Z,50.50
2019-05-01T01:15:24.820Z,51.30
2019-05-01T01:16:24.740Z,51.00
2019-05-01T01:17:31.692Z,51.80
2019-05-01T01:18:24.677Z,53.40
2019-05-01T01:19:25.767Z,50.40
2019-05-01T01:20:24.623Z,52.20
2019-05-01T01:21:26.703Z,52.00
2019-05-01T01:22:24.595Z,56.70
2019-05-01T01:23:24.596Z,51.30
2019-05-01T01:24:24.529Z,52.30
2019-05-01T01:25:39.233Z,54.40
2019-05-01T01:26:24.457Z,55.10
2019-05-01T01:27:31.258Z,55.80
2019-05-01T01:28:24.394Z,56.50
2019-05-01T01:29:26.430Z,60.00
2019-05-01T01:30:24.363Z,54.00
2019-05-01T01:31:25.423Z,56.10
2019-05-01T01:32:24.285Z,57.70
2019-05-01T01:33:24.308Z,59.10
2019-05-01T01:34:24.228Z,59.30
2019-05-01T01:35:24.220Z,59.00
2019-05-01T01:36:24.159Z,58.90
2019-05-01T01:37:26.169Z,59.50
2019-05-01T01:38:24.116Z,58.30
2019-05-01T01:39:25.206Z,62.30
2019-05-01T01:40:24.055Z,62.00
2019-05-01T01:41:24.046Z,62.60
2019-05-01T01:42:24.111Z,56.50
2019-05-01T01:43:26.027Z,59.30
2019-05-01T01:44:23.933Z,62.40
2019-05-01T01:46:23.885Z,63.20
2019-05-01T01:47:24.915Z,66.20
2019-05-01T01:48:23.821Z,61.40
2019-05-01T01:49:24.862Z,68.70
2019-05-01T01:50:23.766Z,67.50
2019-05-01T01:51:30.727Z,63.70
2019-05-01T01:52:23.715Z,66.70
2019-05-01T01:53:30.213Z,62.80
2019-05-01T01:54:23.656Z,65.70
2019-05-01T01:55:24.699Z,68.40
2019-05-01T01:56:23.587Z,76.10
2019-05-01T01:57:30.243Z,69.60
2019-05-01T01:58:23.540Z,76.50
2019-05-01T01:59:23.505Z,66.90
2019-05-01T02:00:23.476Z,70.60
2019-05-01T02:01:23.520Z,72.10
2019-05-01T02:02:23.417Z,65.10
2019-05-01T02:03:23.500Z,72.90
2019-05-01T02:04:23.372Z,74.00
2019-05-01T02:05:23.412Z,72.60
2019-05-01T02:06:23.335Z,75.90
2019-05-01T02:07:23.301Z,69.70
2019-05-01T02:08:23.244Z,75.90
2019-05-01T02:09:25.258Z,76.20
2019-05-01T02:10:23.280Z,72.20
2019-05-01T02:11:23.227Z,76.30
2019-05-01T02:12:23.129Z,75.30
2019-05-01T02:13:24.160Z,76.40
2019-05-01T02:14:23.079Z,76.10
2019-05-01T02:15:23.162Z,72.00
2019-05-01T02:16:23.042Z,70.40
2019-05-01T02:17:29.718Z,80.40
2019-05-01T02:18:22.962Z,103.30
2019-05-01T02:19:25.049Z,74.80
2019-05-01T02:20:22.897Z,101.50
2019-05-01T02:22:22.844Z,108.80
2019-05-01T02:23:22.897Z,83.80
2019-05-01T02:24:22.782Z,85.70
2019-05-01T02:25:38.786Z,84.50
2019-05-01T02:26:22.731Z,87.80
2019-05-01T02:27:29.779Z,85.60
2019-05-01T02:28:22.666Z,81.80
2019-05-01T02:29:29.334Z,84.40
2019-05-01T02:30:22.622Z,89.20
2019-05-01T02:31:29.298Z,84.20
2019-05-01T02:33:22.531Z,79.00
2019-05-01T02:34:22.568Z,83.30
2019-05-01T02:35:22.473Z,78.50
2019-05-01T02:37:22.453Z,80.60
2019-05-01T02:38:22.385Z,79.70
2019-05-01T02:39:22.440Z,74.50
2019-05-01T02:40:22.433Z,73.80
2019-05-01T02:41:46.197Z,78.90
2019-05-01T02:42:22.260Z,73.50
2019-05-01T02:44:22.217Z,67.70
2019-05-01T02:45:38.746Z,90.90
2019-05-01T02:46:22.151Z,107.40
2019-05-01T02:47:24.242Z,73.80
2019-05-01T02:48:22.093Z,76.70
2019-05-01T02:49:36.806Z,78.00
2019-05-01T02:50:22.036Z,81.70
2019-05-01T02:51:36.720Z,72.20
2019-05-01T02:52:21.995Z,77.40
2019-05-01T02:53:30.786Z,97.00
2019-05-01T02:54:21.926Z,75.70
2019-05-01T02:55:23.948Z,77.80
2019-05-01T02:56:21.872Z,74.90
2019-05-01T02:57:22.930Z,74.80
2019-05-01T02:58:21.808Z,80.80
2019-05-01T03:06:42.518Z,88.30
2019-05-01T03:07:54.344Z,72.90
2019-05-01T03:08:53.523Z,81.50
2019-05-01T03:09:42.379Z,73.60
2019-05-01T03:10:53.633Z,83.30
2019-05-01T03:11:53.543Z,77.90
2019-05-01T03:12:42.296Z,84.10
2019-05-01T03:13:53.052Z,77.00
2019-05-01T03:14:52.942Z,82.50
2019-05-01T03:15:42.298Z,79.80
2019-05-01T03:16:42.190Z,78.10
2019-05-01T03:17:52.962Z,67.50
2019-05-01T03:18:42.132Z,67.60
2019-05-01T03:19:52.973Z,80.90
2019-05-01T03:20:52.879Z,117.50
2019-05-01T03:21:42.030Z,95.90
2019-05-01T03:22:53.918Z,110.80
2019-05-01T03:23:52.914Z,84.60
2019-05-01T03:24:41.966Z,87.00
2019-05-01T03:25:52.928Z,86.30
2019-05-01T03:26:53.131Z,94.00
2019-05-01T03:27:41.882Z,82.10
2019-05-01T03:28:53.114Z,84.00
2019-05-01T03:29:53.060Z,97.40
2019-05-01T03:30:41.800Z,90.50
2019-05-01T03:32:14.189Z,78.50
2019-05-01T03:32:52.554Z,100.30
2019-05-01T03:33:41.702Z,93.70
2019-05-01T03:34:53.278Z,76.80
2019-05-01T03:35:52.441Z,92.70
2019-05-01T03:36:41.614Z,97.10
2019-05-01T03:37:52.544Z,86.30
2019-05-01T03:38:52.453Z,86.40
2019-05-01T03:39:41.532Z,80.10
2019-05-01T03:40:52.473Z,85.80
2019-05-01T03:41:52.371Z,84.40
2019-05-01T03:42:41.439Z,87.80
2019-05-01T03:43:52.486Z,87.90
2019-05-01T03:44:52.394Z,69.80
2019-05-01T03:45:41.357Z,72.70
2019-05-01T03:46:52.398Z,80.60
2019-05-01T03:47:52.112Z,75.70
2019-05-01T03:48:41.284Z,73.90
2019-05-01T03:51:13.686Z,73.00
2019-05-01T03:52:13.659Z,79.10
2019-05-01T03:54:07.460Z,79.60
2019-05-01T03:55:07.433Z,93.60
2019-05-01T03:56:07.401Z,79.10
2019-05-01T03:57:07.375Z,82.20
2019-05-01T03:58:07.349Z,84.80
2019-05-01T03:59:07.305Z,77.30
2019-05-01T04:00:07.285Z,77.80
2019-05-01T04:01:07.250Z,81.40
2019-05-01T04:02:07.214Z,85.50
2019-05-01T04:03:07.192Z,75.70
2019-05-01T04:04:07.174Z,77.70
2019-05-01T04:05:07.131Z,81.00
2019-05-01T04:06:07.178Z,79.40
2019-05-01T04:07:07.093Z,72.70
2019-05-01T04:08:07.041Z,78.20
2019-05-01T04:09:07.040Z,73.60
2019-05-01T04:10:07.020Z,99.60
2019-05-01T04:11:06.963Z,104.20
2019-05-01T04:12:07.024Z,75.90
2019-05-01T04:13:06.907Z,91.10
2019-05-01T04:14:06.871Z,82.00
2019-05-01T04:15:06.851Z,83.60
2019-05-01T04:16:06.827Z,89.20
2019-05-01T04:17:06.782Z,99.80
2019-05-01T04:18:06.769Z,106.30
2019-05-01T04:19:06.734Z,103.90
2019-05-01T04:20:06.726Z,99.80
2019-05-01T04:21:06.679Z,99.30
2019-05-01T04:22:06.677Z,91.50
2019-05-01T04:23:06.612Z,89.40
2019-05-01T04:24:06.590Z,92.50
2019-05-01T04:25:06.601Z,87.80
2019-05-01T04:26:06.536Z,89.50
2019-05-01T04:27:06.507Z,88.50
2019-05-01T04:28:06.462Z,89.90
2019-05-01T04:29:06.437Z,85.80
2019-05-01T04:30:06.431Z,75.90
2019-05-01T04:31:06.376Z,76.50
2019-05-01T04:32:06.351Z,71.70
2019-05-01T04:33:06.322Z,82.90
2019-05-01T04:34:06.297Z,77.20
2019-05-01T04:35:06.273Z,75.50
2019-05-01T04:36:13.067Z,70.10
2019-05-01T04:37:08.096Z,75.40
2019-05-01T04:38:08.314Z,80.50
2019-05-01T04:39:06.148Z,78.10
2019-05-01T04:40:06.119Z,80.80
2019-05-01T04:41:06.105Z,78.80
2019-05-01T04:42:06.066Z,82.40
2019-05-01T04:43:06.066Z,77.40
2019-05-01T04:44:06.008Z,80.20
2019-05-01T04:45:06.075Z,65.30
2019-05-01T04:46:05.938Z,75.30
2019-05-01T04:47:05.988Z,70.30
2019-05-01T04:48:05.892Z,71.80
2019-05-01T04:49:05.893Z,61.30
2019-05-01T04:50:05.826Z,62.20
2019-05-01T04:51:05.903Z,77.90
2019-05-01T04:52:05.777Z,56.80
2019-05-01T04:53:05.746Z,72.00
2019-05-01T04:54:05.706Z,72.40
2019-05-01T04:55:05.686Z,63.60
2019-05-01T04:56:05.652Z,62.10
2019-05-01T04:57:05.636Z,66.20
2019-05-01T04:58:05.598Z,64.90
2019-05-01T04:59:14.343Z,68.20
2019-05-01T05:00:05.531Z,70.50
2019-05-01T05:01:06.587Z,66.60
2019-05-01T05:02:05.506Z,59.30
2019-05-01T05:03:05.634Z,65.40
2019-05-01T05:04:05.423Z,64.90
2019-05-01T05:06:05.358Z,61.70
2019-05-01T05:07:05.344Z,65.90
2019-05-01T05:08:12.249Z,63.50
2019-05-01T05:09:05.277Z,74.10
2019-05-01T05:10:05.320Z,67.50
2019-05-01T05:11:05.217Z,67.00
2019-05-01T05:12:05.228Z,75.10
2019-05-01T05:13:05.184Z,70.70
2019-05-01T05:22:02.402Z,96.90
2019-05-01T05:23:02.427Z,72.10
2019-05-01T05:24:02.326Z,87.00
2019-05-01T05:25:02.328Z,95.30
2019-05-01T05:26:02.283Z,97.00
2019-05-01T05:27:02.343Z,95.40
2019-05-01T05:28:02.230Z,87.30
2019-05-01T05:29:02.260Z,91.70
2019-05-01T05:30:02.155Z,89.50
2019-05-01T05:31:02.173Z,90.70
2019-05-01T05:32:02.098Z,93.10
2019-05-01T05:33:02.089Z,90.80
2019-05-01T05:34:02.040Z,89.50
2019-05-01T05:36:01.976Z,119.30
2019-05-01T05:37:11.014Z,102.30
2019-05-01T05:38:01.917Z,87.50
2019-05-01T05:39:10.533Z,75.50
2019-05-01T05:40:01.866Z,85.40
2019-05-01T05:41:03.879Z,71.30
2019-05-01T05:42:01.805Z,82.80
2019-05-01T05:43:09.518Z,79.80
2019-05-01T05:44:01.754Z,86.90
2019-05-01T05:45:10.448Z,75.70
2019-05-01T05:46:01.689Z,85.50
2019-05-01T05:47:17.453Z,86.00
2019-05-01T05:48:01.624Z,84.00
2019-05-01T05:49:25.450Z,88.40
2019-05-01T05:50:01.582Z,71.00
2019-05-01T05:51:01.609Z,84.10
2019-05-01T05:52:01.510Z,78.30
2019-05-01T05:53:26.503Z,67.10
2019-05-01T05:54:01.455Z,65.70
2019-05-01T05:55:01.427Z,65.30
2019-05-01T05:56:02.456Z,66.40
2019-05-01T05:57:01.381Z,62.10
2019-05-01T05:59:01.317Z,65.70
2019-05-01T06:01:01.245Z,61.00
2019-05-01T06:02:01.213Z,66.10
2019-05-01T06:04:01.161Z,59.80
2019-05-01T06:05:01.234Z,62.20
2019-05-01T06:06:01.123Z,66.30
2019-05-01T06:07:01.077Z,58.80
2019-05-01T06:08:01.049Z,66.10
2019-05-01T06:09:01.019Z,54.20
2019-05-01T06:10:00.983Z,54.70
2019-05-01T06:11:01.072Z,50.70
2019-05-01T06:12:05.023Z,52.40
2019-05-01T06:13:01.027Z,49.10
2019-05-01T06:14:00.869Z,54.10
2019-05-01T06:15:02.446Z,52.60
2019-05-01T06:16:00.810Z,48.90
2019-05-01T06:17:00.840Z,52.10
2019-05-01T06:18:04.161Z,49.70
2019-05-01T06:19:00.736Z,52.80
2019-05-01T06:20:00.694Z,52.70
2019-05-01T06:21:02.153Z,53.40
2019-05-01T06:22:04.930Z,47.90
2019-05-01T06:23:00.617Z,55.30
2019-05-01T06:24:06.302Z,59.90
2019-05-01T06:25:00.551Z,57.50
2019-05-01T06:26:02.483Z,55.50
2019-05-01T06:27:00.504Z,54.90
2019-05-01T06:28:00.524Z,55.50
2019-05-01T06:29:01.971Z,51.90
2019-05-01T06:30:00.515Z,49.00
2019-05-01T06:31:00.368Z,49.30
2019-05-01T06:32:00.431Z,47.50
2019-05-01T06:33:04.197Z,41.10
2019-05-01T06:34:00.281Z,45.00
2019-05-01T06:35:03.091Z,47.00
2019-05-01T06:36:00.234Z,46.40
2019-05-01T06:37:00.243Z,48.50
2019-05-01T06:38:00.731Z,51.30
2019-05-01T06:39:02.254Z,47.30
2019-05-01T06:40:00.121Z,50.80
2019-05-01T06:41:00.181Z,48.60
2019-05-01T06:42:00.076Z,45.40
2019-05-01T06:43:01.106Z,44.70
2019-05-01T06:44:02.209Z,46.30
2019-05-01T06:45:16.777Z,47.20
2019-05-01T06:46:00.043Z,50.00
2019-05-01T06:47:03.261Z,47.30
2019-05-01T06:47:59.877Z,45.30
2019-05-01T06:48:59.911Z,46.00
2019-05-01T06:50:01.226Z,40.00
2019-05-01T06:51:07.508Z,41.90
2019-05-01T06:51:59.803Z,42.30
2019-05-01T06:53:06.729Z,41.80
2019-05-01T06:53:59.702Z,44.60
2019-05-01T06:54:59.739Z,39.20
2019-05-01T06:55:59.645Z,40.60
2019-05-01T06:57:07.539Z,42.50
2019-05-01T06:57:59.592Z,42.40
2019-05-01T06:59:14.535Z,37.00
2019-05-01T07:00:03.121Z,42.30
2019-05-01T07:00:59.498Z,40.10
2019-05-01T07:02:00.251Z,42.70
2019-05-01T07:02:59.444Z,45.10
2019-05-01T07:04:03.862Z,43.90
2019-05-01T07:04:59.393Z,47.30
2019-05-01T07:06:13.361Z,44.50
2019-05-01T07:07:01.894Z,45.30
2019-05-01T07:07:59.336Z,44.30
2019-05-01T07:08:59.288Z,45.10
2019-05-01T07:10:08.060Z,40.90
2019-05-01T07:10:59.212Z,47.20
2019-05-01T07:11:59.267Z,46.70
2019-05-01T07:12:59.911Z,42.30
2019-05-01T07:14:11.220Z,45.20
2019-05-01T07:14:59.145Z,42.60
2019-05-01T07:16:03.067Z,47.70
2019-05-01T07:16:59.071Z,52.60
2019-05-01T07:18:00.144Z,49.70
2019-05-01T07:19:05.735Z,52.30
2019-05-01T07:20:01.091Z,49.50
2019-05-01T07:20:58.945Z,52.60
2019-05-01T07:22:01.819Z,50.90
2019-05-01T07:22:58.907Z,48.60
2019-05-01T07:24:07.559Z,50.20
2019-05-01T07:25:03.383Z,49.00
2019-05-01T07:25:58.870Z,50.50
2019-05-01T07:26:59.855Z,50.40
2019-05-01T07:27:59.755Z,50.60
2019-05-01T07:28:58.707Z,52.70
2019-05-01T07:29:58.777Z,51.10
2019-05-01T07:30:58.678Z,49.80
2019-05-01T07:32:01.642Z,51.40
2019-05-01T07:32:58.600Z,54.20
2019-05-01T07:33:58.594Z,50.90
2019-05-01T07:35:02.082Z,52.10
2019-05-01T07:35:58.608Z,50.10
2019-05-01T07:36:58.498Z,48.80
2019-05-01T07:38:02.260Z,47.90
2019-05-01T07:38:58.415Z,47.90
2019-05-01T07:39:58.421Z,46.90
2019-05-01T07:40:58.899Z,43.70
2019-05-01T07:41:58.436Z,43.80
2019-05-01T07:42:58.337Z,40.20
2019-05-01T07:43:59.720Z,42.70
2019-05-01T07:44:58.224Z,41.60
2019-05-01T07:46:07.089Z,38.20
2019-05-01T07:46:58.209Z,40.40
2019-05-01T07:48:01.087Z,40.80
2019-05-01T07:48:58.154Z,35.90
2019-05-01T07:50:00.170Z,32.70
2019-05-01T07:51:01.843Z,37.20
2019-05-01T07:52:01.708Z,35.90
2019-05-01T07:52:58.018Z,36.40
2019-05-01T07:54:08.737Z,36.30
2019-05-01T07:54:57.939Z,34.80
2019-05-01T07:55:57.957Z,35.30
2019-05-01T07:56:58.653Z,37.80
2019-05-01T07:57:57.864Z,32.30
2019-05-01T07:58:58.982Z,33.50
2019-05-01T07:59:58.332Z,35.40
2019-05-01T08:00:58.880Z,33.80
2019-05-01T08:01:57.733Z,35.40
2019-05-01T08:02:57.758Z,34.90
2019-05-01T08:03:57.686Z,35.40
2019-05-01T08:04:59.739Z,37.80
2019-05-01T08:05:57.642Z,38.30
2019-05-01T08:06:58.690Z,35.00
2019-05-01T08:07:57.578Z,36.70
2019-05-01T08:08:57.551Z,37.90
2019-05-01T08:09:57.513Z,33.30
2019-05-01T08:10:59.821Z,34.80
2019-05-01T08:11:57.483Z,34.20
2019-05-01T08:13:00.340Z,35.10
2019-05-01T08:14:07.109Z,35.00
2019-05-01T08:14:57.370Z,37.40
2019-05-01T08:15:57.450Z,36.00
2019-05-01T08:16:57.381Z,33.80
2019-05-01T08:17:57.287Z,34.20
2019-05-01T08:18:59.003Z,32.60
2019-05-01T08:19:57.255Z,37.00
2019-05-01T08:20:57.219Z,33.40
2019-05-01T08:22:01.698Z,32.20
2019-05-01T08:22:57.159Z,32.40
2019-05-01T08:23:57.121Z,33.60
2019-05-01T08:24:58.763Z,35.30
2019-05-01T08:25:57.063Z,33.30
2019-05-01T08:26:57.179Z,32.70
2019-05-01T08:27:58.109Z,32.90
2019-05-01T08:28:57.140Z,34.20
2019-05-01T08:29:56.942Z,30.30
2019-05-01T08:30:57.095Z,30.90
2019-05-01T08:31:58.749Z,32.90
2019-05-01T08:32:56.906Z,31.90
2019-05-01T08:33:56.870Z,31.80
2019-05-01T08:35:00.381Z,32.70
2019-05-01T08:35:56.787Z,32.00
2019-05-01T08:36:56.959Z,31.50
2019-05-01T08:37:58.496Z,31.30
2019-05-01T08:38:56.885Z,30.80
2019-05-01T08:39:56.691Z,33.00
2019-05-01T08:40:56.858Z,30.60
2019-05-01T08:41:56.592Z,32.50
2019-05-01T08:42:56.774Z,32.20
2019-05-01T08:43:56.525Z,31.00
2019-05-01T08:44:59.858Z,30.10
2019-05-01T08:45:56.520Z,32.20
2019-05-01T08:46:56.607Z,32.50
2019-05-01T08:47:56.758Z,34.00
2019-05-01T08:48:56.438Z,36.10
2019-05-01T08:49:56.357Z,32.90
2019-05-01T08:51:11.060Z,30.20
2019-05-01T08:51:56.305Z,33.00
2019-05-01T08:53:34.078Z,32.80
2019-05-01T08:53:57.957Z,32.40
2019-05-01T08:54:56.269Z,32.70
2019-05-01T08:55:56.276Z,33.80
2019-05-01T08:56:57.976Z,31.30
2019-05-01T08:57:56.108Z,32.60
2019-05-01T08:58:56.192Z,34.30
2019-05-01T09:00:00.397Z,34.20
2019-05-01T09:00:56.097Z,35.70
2019-05-01T09:02:09.026Z,31.50
2019-05-01T09:03:07.902Z,32.00
2019-05-01T09:03:56.072Z,36.60
2019-05-01T09:05:02.529Z,31.20
2019-05-01T09:05:57.298Z,35.80
2019-05-01T09:06:55.894Z,34.20
2019-05-01T09:07:57.656Z,36.20
2019-05-01T09:08:55.805Z,33.80
2019-05-01T09:09:55.896Z,35.40
2019-05-01T09:11:00.280Z,33.20
2019-05-01T09:11:55.785Z,34.30
2019-05-01T09:12:55.700Z,34.80
2019-05-01T09:13:58.925Z,37.50
2019-05-01T09:14:55.632Z,34.60
2019-05-01T09:15:55.658Z,37.40
2019-05-01T09:16:55.592Z,34.10
2019-05-01T09:17:55.544Z,34.50
2019-05-01T09:18:55.630Z,32.80
2019-05-01T09:19:55.479Z,33.60
2019-05-01T09:20:55.482Z,35.10
2019-05-01T09:21:55.549Z,35.30
2019-05-01T09:22:55.427Z,36.30
2019-05-01T09:23:55.465Z,37.10
2019-05-01T09:24:59.895Z,34.50
2019-05-01T09:25:56.408Z,35.40
2019-05-01T09:26:55.289Z,39.00
2019-05-01T09:27:55.452Z,35.70
2019-05-01T09:28:55.254Z,34.70
2019-05-01T09:29:55.268Z,38.90
2019-05-01T09:31:01.372Z,36.40
2019-05-01T09:31:55.171Z,35.70
2019-05-01T09:32:55.576Z,35.00
2019-05-01T09:33:55.103Z,34.80
2019-05-01T09:34:58.035Z,36.90
2019-05-01T09:35:56.139Z,37.50
2019-05-01T09:36:55.971Z,37.40
2019-05-01T09:37:57.739Z,34.50
2019-05-01T09:38:54.952Z,36.20
2019-05-01T09:39:54.978Z,38.40
2019-05-01T09:40:54.917Z,36.80
2019-05-01T09:41:54.985Z,33.10
2019-05-01T09:42:58.968Z,35.30
2019-05-01T09:43:54.893Z,38.30
2019-05-01T09:44:54.772Z,35.00
2019-05-01T09:45:54.779Z,37.60
2019-05-01T09:46:54.723Z,37.70
2019-05-01T09:47:54.718Z,37.50
2019-05-01T09:48:54.653Z,36.60
2019-05-01T09:49:55.975Z,35.50
2019-05-01T09:50:54.598Z,38.00
2019-05-01T09:51:54.566Z,33.00
2019-05-01T09:52:55.164Z,36.00
2019-05-01T09:53:54.622Z,34.60
2019-05-01T09:54:54.520Z,35.50
2019-05-01T09:55:54.436Z,35.20
2019-05-01T09:56:54.439Z,37.80
2019-05-01T09:57:55.431Z,34.80
2019-05-01T09:58:54.375Z,37.60
2019-05-01T09:59:54.362Z,36.40
2019-05-01T10:00:54.346Z,37.30
2019-05-01T10:01:54.318Z,35.70
2019-05-01T10:02:54.737Z,34.60
2019-05-01T10:03:54.823Z,37.30
2019-05-01T10:04:54.178Z,36.50
2019-05-01T10:05:54.269Z,37.30
2019-05-01T10:06:54.224Z,34.00
2019-05-01T10:07:54.188Z,36.80
2019-05-01T10:08:54.081Z,38.40
2019-05-01T10:09:55.163Z,39.00
2019-05-01T10:10:54.021Z,34.90
2019-05-01T10:11:56.175Z,36.50
2019-05-01T10:12:54.011Z,38.40
2019-05-01T10:13:58.545Z,36.60
2019-05-01T10:14:53.907Z,35.80
2019-05-01T10:15:53.895Z,37.30
2019-05-01T10:16:53.856Z,37.10
2019-05-01T10:17:53.851Z,35.80
2019-05-01T10:18:53.948Z,37.50
2019-05-01T10:19:53.845Z,34.80
2019-05-01T10:20:53.735Z,35.60
2019-05-01T10:21:53.720Z,35.70
2019-05-01T10:22:53.728Z,32.50
2019-05-01T10:23:53.861Z,37.30
2019-05-01T10:24:53.702Z,37.20
2019-05-01T10:25:53.617Z,34.40
2019-05-01T10:26:55.237Z,35.90
2019-05-01T10:27:53.585Z,33.70
2019-05-01T10:28:53.519Z,35.40
2019-05-01T10:29:56.918Z,36.50
2019-05-01T10:30:53.519Z,32.20
2019-05-01T10:31:53.487Z,34.90
2019-05-01T10:32:58.010Z,36.00
2019-05-01T10:33:54.361Z,33.00
2019-05-01T10:34:53.353Z,33.60
2019-05-01T10:35:53.334Z,33.10
2019-05-01T10:36:54.596Z,34.60
2019-05-01T10:37:53.294Z,33.20
2019-05-01T10:38:53.223Z,31.50
2019-05-01T10:39:54.127Z,32.30
2019-05-01T10:40:53.188Z,33.00
2019-05-01T10:41:53.225Z,33.40
2019-05-01T10:42:53.096Z,32.70
2019-05-01T10:43:53.081Z,33.80
2019-05-01T10:44:53.062Z,34.60
2019-05-01T10:45:53.008Z,31.80
2019-05-01T10:46:52.990Z,35.60
2019-05-01T10:47:52.977Z,35.10
2019-05-01T10:48:52.924Z,35.00
2019-05-01T10:50:07.533Z,32.70
2019-05-01T10:50:52.887Z,36.90
2019-05-01T10:53:25.091Z,32.00
2019-05-01T12:05:36.703Z,33.50
2019-05-01T12:06:33.796Z,34.90
2019-05-01T12:07:33.894Z,36.40
2019-05-01T12:08:33.729Z,37.60
2019-05-01T12:09:33.704Z,35.20
2019-05-01T12:10:33.676Z,38.00
2019-05-01T12:11:34.651Z,36.70
2019-05-01T12:12:33.613Z,36.90
2019-05-01T12:18:16.893Z,37.40
2019-05-01T12:19:14.219Z,36.80
2019-05-01T12:20:14.169Z,36.40
2019-05-01T12:21:14.149Z,36.80
2019-05-01T12:22:14.095Z,36.10
2019-05-01T12:23:14.088Z,37.00
2019-05-01T12:24:14.052Z,37.00
2019-05-01T12:25:14.027Z,38.40
2019-05-01T12:26:13.993Z,38.60
2019-05-01T12:27:13.967Z,35.90
2019-05-01T12:28:13.932Z,38.30
2019-05-01T12:29:13.926Z,37.90
2019-05-01T12:30:13.878Z,35.60
2019-05-01T12:31:13.847Z,36.50
2019-05-01T12:32:13.827Z,39.10
2019-05-01T12:33:13.802Z,34.20
2019-05-01T12:34:13.772Z,33.50
2019-05-01T12:35:13.744Z,33.90
2019-05-01T12:36:13.708Z,37.90
2019-05-01T12:37:13.706Z,34.70
2019-05-01T12:38:13.651Z,34.10
2019-05-01T12:39:13.633Z,32.20
2019-05-01T12:40:13.593Z,33.50
2019-05-01T12:41:13.570Z,33.10
2019-05-01T12:42:13.536Z,34.00
2019-05-01T12:43:13.515Z,34.60
2019-05-01T12:44:13.479Z,34.50
2019-05-01T12:45:13.457Z,36.50
2019-05-01T12:46:13.437Z,34.10
2019-05-01T12:47:13.402Z,36.20
2019-05-01T12:48:13.466Z,33.60
2019-05-01T12:49:15.766Z,35.10
2019-05-01T12:50:13.328Z,34.20
2019-05-01T12:51:14.289Z,33.80
2019-05-01T12:52:13.255Z,37.20
2019-05-01T12:53:13.238Z,33.40
2019-05-01T12:54:13.203Z,34.70
2019-05-01T12:55:13.196Z,34.10
2019-05-01T12:56:13.155Z,33.80
2019-05-01T12:57:13.124Z,33.80
2019-05-01T12:58:13.098Z,34.10
2019-05-01T12:59:13.072Z,37.20
2019-05-01T13:00:13.052Z,34.00
2019-05-01T13:01:13.033Z,34.30
2019-05-01T13:02:12.988Z,32.20
2019-05-01T13:03:12.950Z,33.60
2019-05-01T13:04:12.931Z,34.10
2019-05-01T13:05:12.894Z,33.70
2019-05-01T13:06:14.407Z,34.90
2019-05-01T13:07:12.957Z,38.10
2019-05-01T13:08:12.808Z,39.00
2019-05-01T13:09:12.829Z,33.50
2019-05-01T13:10:12.759Z,36.70
2019-05-01T13:11:12.760Z,35.20
2019-05-01T13:12:12.688Z,36.80
2019-05-01T13:13:12.669Z,35.60
2019-05-01T13:14:12.654Z,35.80
2019-05-01T13:15:12.614Z,38.80
2019-05-01T13:16:12.602Z,36.00
2019-05-01T13:17:12.562Z,37.00
2019-05-01T13:18:12.528Z,35.30
2019-05-01T13:19:12.535Z,37.80
2019-05-01T13:20:12.535Z,36.80
2019-05-01T13:21:12.434Z,37.60
2019-05-01T13:22:12.467Z,37.90
2019-05-01T13:23:12.385Z,36.70
2019-05-01T13:24:14.364Z,40.30
2019-05-01T13:25:12.324Z,37.90
2019-05-01T13:26:12.309Z,36.60
2019-05-01T13:27:12.266Z,36.30
2019-05-01T13:28:12.244Z,38.20
2019-05-01T13:29:12.220Z,38.00
2019-05-01T13:30:12.215Z,38.70
2019-05-01T13:31:12.164Z,35.20
2019-05-01T13:32:12.140Z,38.20
2019-05-01T13:33:12.108Z,37.20
2019-05-01T13:34:12.090Z,37.00
2019-05-01T13:35:12.044Z,37.20
2019-05-01T13:36:13.097Z,36.70
2019-05-01T13:37:11.987Z,37.90
2019-05-01T13:38:11.961Z,36.20
2019-05-01T13:39:11.931Z,37.00
2019-05-01T13:40:12.903Z,36.80
2019-05-01T13:41:11.873Z,38.30
2019-05-01T13:42:11.845Z,37.00
2019-05-01T13:43:11.822Z,38.50
2019-05-01T13:44:11.815Z,36.70
2019-05-01T13:45:11.775Z,36.70
2019-05-01T13:46:11.749Z,36.80
2019-05-01T13:47:11.712Z,34.60
2019-05-01T13:48:11.679Z,36.30
2019-05-01T13:49:11.648Z,36.10
2019-05-01T13:50:11.627Z,36.20
2019-05-01T13:51:11.595Z,36.60
2019-05-01T13:52:11.575Z,38.30
2019-05-01T13:53:11.544Z,36.60
2019-05-01T13:54:11.515Z,36.90
2019-05-01T13:55:11.483Z,38.40
2019-05-01T13:56:11.464Z,36.80
2019-05-01T13:57:11.425Z,38.00
2019-05-01T13:58:11.449Z,36.90
2019-05-01T13:59:11.372Z,36.80
2019-05-01T14:00:11.365Z,36.70
2019-05-01T14:01:11.310Z,37.40
2019-05-01T14:02:17.932Z,36.60
2019-05-01T14:03:11.264Z,36.10
2019-05-01T14:04:11.230Z,37.20
2019-05-01T14:05:11.200Z,36.30
2019-05-01T14:06:19.924Z,37.20
2019-05-01T14:07:16.632Z,35.00
2019-05-01T14:08:11.212Z,35.70
2019-05-01T14:09:11.093Z,36.70
2019-05-01T14:10:12.071Z,36.20
2019-05-01T14:11:11.055Z,35.20
2019-05-01T14:12:12.036Z,35.90
2019-05-01T14:13:10.980Z,35.90
2019-05-01T14:14:12.955Z,36.50
2019-05-01T14:15:10.922Z,39.70
2019-05-01T14:16:10.894Z,36.70
2019-05-01T14:17:10.863Z,35.60
2019-05-01T14:18:11.850Z,38.90
2019-05-01T14:19:10.814Z,37.60
2019-05-01T14:20:12.804Z,35.20
2019-05-01T14:21:10.763Z,41.00
2019-05-01T14:22:18.427Z,34.10
2019-05-01T14:23:10.708Z,38.50
2019-05-01T14:24:11.680Z,36.90
2019-05-01T14:25:10.650Z,35.50
2019-05-01T14:26:11.632Z,35.30
2019-05-01T14:27:10.603Z,35.30
2019-05-01T14:28:10.580Z,35.20
2019-05-01T14:29:10.615Z,36.10
2019-05-01T14:30:10.516Z,37.10
2019-05-01T14:31:10.517Z,37.20
2019-05-01T14:32:10.476Z,36.10
2019-05-01T14:33:10.462Z,33.80
2019-05-01T14:34:10.432Z,35.50
2019-05-01T14:35:10.374Z,35.70
2019-05-01T14:36:10.377Z,35.20
2019-05-01T14:37:10.309Z,36.20
2019-05-01T14:38:10.282Z,33.70